createdAt,value
2022-08-05T00:01:48.631Z,24.59
2022-08-05T00:04:18.172Z,24.52
2022-08-05T00:06:47.268Z,24.46
2022-08-05T00:09:19.498Z,24.42
2022-08-05T00:11:56.063Z,24.38
2022-08-05T00:14:29.248Z,24.38
2022-08-05T00:17:01.643Z,24.31
2022-08-05T00:19:33.352Z,24.28
2022-08-05T00:22:13.185Z,24.28
2022-08-05T00:24:42.422Z,24.27
2022-08-05T00:27:16.618Z,24.23
2022-08-05T00:29:44.973Z,24.19
2022-08-05T00:32:14.929Z,24.15
2022-08-05T00:35:05.326Z,24.11
2022-08-05T00:37:53.272Z,24.02
2022-08-05T00:40:27.829Z,24.02
2022-08-05T00:42:59.072Z,24.02
2022-08-05T00:45:38.446Z,23.94
2022-08-05T00:48:09.281Z,23.93
2022-08-05T00:50:39.448Z,23.96
2022-08-05T00:54:00.396Z,23.94
2022-08-05T00:55:58.164Z,23.90
2022-08-05T00:58:27.349Z,23.91
2022-08-05T01:00:56.033Z,23.89
2022-08-05T01:03:30.997Z,23.93
2022-08-05T01:06:02.596Z,23.91
2022-08-05T01:08:43.183Z,23.91
2022-08-05T01:11:33.635Z,23.88
2022-08-05T01:14:33.774Z,23.89
2022-08-05T01:17:22.682Z,23.93
2022-08-05T01:20:03.659Z,23.96
2022-08-05T01:22:40.555Z,23.94
2022-08-05T01:25:10.395Z,23.89
2022-08-05T01:27:55.406Z,23.87
2022-08-05T01:30:34.308Z,23.82
2022-08-05T01:33:09.377Z,23.83
2022-08-05T01:35:51.343Z,23.86
2022-08-05T01:38:24.785Z,23.88
2022-08-05T01:41:01.533Z,23.91
2022-08-05T01:43:30.899Z,23.94
2022-08-05T01:46:07.276Z,23.96
2022-08-05T01:48:49.757Z,23.96
2022-08-05T01:51:18.835Z,23.92
2022-08-05T01:53:57.327Z,23.87
2022-08-05T01:58:11.439Z,23.83
2022-08-05T01:59:23.119Z,23.80
2022-08-05T02:01:54.857Z,23.78
2022-08-05T02:04:25.900Z,23.77
2022-08-05T02:06:53.505Z,23.78
2022-08-05T02:09:20.876Z,23.78
2022-08-05T02:12:13.479Z,23.79
2022-08-05T02:14:49.280Z,23.82
2022-08-05T02:18:12.509Z,23.83
2022-08-05T02:20:22.269Z,23.81
2022-08-05T02:22:59.942Z,23.79
2022-08-05T02:25:49.594Z,23.81
2022-08-05T02:28:28.929Z,23.83
2022-08-05T02:31:07.594Z,23.81
2022-08-05T02:33:41.875Z,23.77
2022-08-05T02:36:15.552Z,23.73
2022-08-05T02:38:52.932Z,23.68
2022-08-05T02:41:28.834Z,23.65
2022-08-05T02:44:13.460Z,23.58
2022-08-05T02:46:59.903Z,23.51
2022-08-05T02:49:36.558Z,23.40
2022-08-05T02:52:13.541Z,23.30
2022-08-05T02:54:55.151Z,23.21
2022-08-05T02:58:19.950Z,23.18
2022-08-05T03:00:13.828Z,23.16
2022-08-05T03:02:43.557Z,23.18
2022-08-05T03:05:13.530Z,23.23
2022-08-05T03:08:06.811Z,23.24
2022-08-05T03:10:35.286Z,23.22
2022-08-05T03:13:16.786Z,23.22
2022-08-05T03:15:45.904Z,23.23
2022-08-05T03:18:17.395Z,23.22
2022-08-05T03:20:48.957Z,23.21
2022-08-05T03:23:18.492Z,23.22
2022-08-05T03:26:05.064Z,23.19
2022-08-05T03:28:39.639Z,23.19
2022-08-05T03:31:09.322Z,23.15
2022-08-05T03:33:52.711Z,23.04
2022-08-05T03:36:30.601Z,22.96
2022-08-05T03:38:58.437Z,22.87
2022-08-05T03:41:26.126Z,22.83
2022-08-05T03:44:11.421Z,22.84
2022-08-05T03:46:39.555Z,22.89
2022-08-05T03:49:07.637Z,22.92
2022-08-05T03:52:37.117Z,22.93
2022-08-05T03:55:34.206Z,22.99
2022-08-05T03:57:42.412Z,23.04
2022-08-05T04:00:16.503Z,23.15
2022-08-05T04:02:57.807Z,23.19
2022-08-05T04:05:33.288Z,23.18
2022-08-05T04:08:05.546Z,23.24
2022-08-05T04:10:38.001Z,23.31
2022-08-05T04:13:07.866Z,23.40
2022-08-05T04:15:37.179Z,23.51
2022-08-05T04:18:09.386Z,23.58
2022-08-05T04:20:38.341Z,23.65
2022-08-05T04:23:12.433Z,23.71
2022-08-05T04:26:00.372Z,23.85
2022-08-05T04:28:30.602Z,24.75
2022-08-05T04:31:00.852Z,26.12
2022-08-05T04:33:54.328Z,27.41
2022-08-05T04:36:46.304Z,28.74
2022-08-05T04:39:06.450Z,29.88
2022-08-05T04:41:37.251Z,30.72
2022-08-05T04:44:08.930Z,31.26
2022-08-05T04:46:38.692Z,30.70
2022-08-05T04:49:14.402Z,29.77
2022-08-05T04:51:45.480Z,29.02
2022-08-05T04:54:14.344Z,28.58
2022-08-05T04:56:42.578Z,29.01
2022-08-05T04:59:22.343Z,29.84
2022-08-05T05:02:35.401Z,30.67
2022-08-05T05:04:43.979Z,31.42
2022-08-05T05:07:17.269Z,32.08
2022-08-05T05:09:45.680Z,32.76
2022-08-05T05:12:13.968Z,33.24
2022-08-05T05:14:50.826Z,33.84
2022-08-05T05:17:23.722Z,34.43
2022-08-05T05:19:56.542Z,34.80
2022-08-05T05:22:26.786Z,35.31
2022-08-05T05:24:57.874Z,35.69
2022-08-05T05:27:44.458Z,35.72
2022-08-05T05:30:30.991Z,35.79
2022-08-05T05:33:16.624Z,35.91
2022-08-05T05:35:47.931Z,36.13
2022-08-05T05:38:22.560Z,36.60
2022-08-05T05:40:56.187Z,36.89
2022-08-05T05:43:57.396Z,36.93
2022-08-05T05:46:17.360Z,37.05
2022-08-05T05:48:48.674Z,37.25
2022-08-05T05:51:21.794Z,37.27
2022-08-05T05:53:57.828Z,37.53
2022-08-05T05:56:34.178Z,37.47
2022-08-05T05:59:06.525Z,36.78
2022-08-05T06:01:57.021Z,36.12
2022-08-05T06:04:25.964Z,36.51
2022-08-05T06:06:53.807Z,37.06
2022-08-05T06:09:26.658Z,37.86
2022-08-05T06:12:09.728Z,38.48
2022-08-05T06:14:40.267Z,38.24
2022-08-05T06:17:22.282Z,38.06
2022-08-05T06:19:57.103Z,38.45
2022-08-05T06:22:33.493Z,38.78
2022-08-05T06:25:59.095Z,39.26
2022-08-05T06:28:08.901Z,39.49
2022-08-05T06:30:39.911Z,39.70
2022-08-05T06:33:09.745Z,40.24
2022-08-05T06:36:03.559Z,40.86
2022-08-05T06:38:35.668Z,41.34
2022-08-05T06:41:07.919Z,41.53
2022-08-05T06:43:57.742Z,41.53
2022-08-05T06:46:30.261Z,41.62
2022-08-05T06:49:02.042Z,41.55
2022-08-05T06:51:33.534Z,41.28
2022-08-05T06:54:03.960Z,40.71
2022-08-05T06:56:34.952Z,39.93
2022-08-05T06:59:08.553Z,39.55
2022-08-05T07:01:41.516Z,39.65
2022-08-05T07:04:10.805Z,40.06
2022-08-05T07:06:41.650Z,40.66
2022-08-05T07:09:09.114Z,41.35
2022-08-05T07:11:39.865Z,41.86
2022-08-05T07:14:29.782Z,42.17
2022-08-05T07:17:58.409Z,42.45
2022-08-05T07:20:32.241Z,42.66
2022-08-05T07:22:38.367Z,42.85
2022-08-05T07:25:23.802Z,43.04
2022-08-05T07:28:17.094Z,43.17
2022-08-05T07:30:50.254Z,43.34
2022-08-05T07:33:37.209Z,43.47
2022-08-05T07:36:20.716Z,43.51
2022-08-05T07:38:49.857Z,43.68
2022-08-05T07:42:13.010Z,43.82
2022-08-05T07:44:18.891Z,43.94
2022-08-05T07:46:49.522Z,44.00
2022-08-05T07:49:19.945Z,43.87
2022-08-05T07:51:53.863Z,43.70
2022-08-05T07:54:30.220Z,43.64
2022-08-05T07:57:41.711Z,43.41
2022-08-05T07:59:48.930Z,43.07
2022-08-05T08:02:17.878Z,42.82
2022-08-05T08:04:47.007Z,42.86
2022-08-05T08:07:14.973Z,42.76
2022-08-05T08:09:43.166Z,42.64
2022-08-05T08:12:35.134Z,42.46
2022-08-05T08:15:03.586Z,42.29
2022-08-05T08:17:32.644Z,42.20
2022-08-05T08:20:22.275Z,42.32
2022-08-05T08:22:56.256Z,42.32
2022-08-05T08:25:26.951Z,42.24
2022-08-05T08:28:18.768Z,42.30
2022-08-05T08:30:59.548Z,42.58
2022-08-05T08:33:29.744Z,42.73
2022-08-05T08:36:38.582Z,42.80
2022-08-05T08:38:56.990Z,42.65
2022-08-05T08:41:52.657Z,42.60
2022-08-05T08:45:18.433Z,42.55
2022-08-05T08:47:47.307Z,42.14
2022-08-05T08:50:06.178Z,41.75
2022-08-05T08:52:57.740Z,41.27
2022-08-05T08:56:02.150Z,40.75
2022-08-05T08:58:15.514Z,40.27
2022-08-05T09:00:43.681Z,39.78
2022-08-05T09:03:15.971Z,39.35
2022-08-05T09:06:08.616Z,39.07
2022-08-05T09:08:31.839Z,39.00
2022-08-05T09:10:59.520Z,38.91
2022-08-05T09:13:31.543Z,38.83
2022-08-05T09:15:59.354Z,38.82
2022-08-05T09:18:27.217Z,38.82
2022-08-05T09:20:57.561Z,38.93
2022-08-05T09:23:39.958Z,39.13
2022-08-05T09:26:15.905Z,39.37
2022-08-05T09:28:49.092Z,39.50
2022-08-05T09:31:44.251Z,39.46
2022-08-05T09:34:09.625Z,39.47
2022-08-05T09:36:55.209Z,39.62
2022-08-05T09:39:41.346Z,39.89
2022-08-05T09:42:23.246Z,39.84
2022-08-05T09:44:56.641Z,39.67
2022-08-05T09:47:34.971Z,39.45
2022-08-05T09:50:18.272Z,39.35
2022-08-05T09:53:01.540Z,39.49
2022-08-05T09:55:56.197Z,39.53
2022-08-05T09:58:23.092Z,39.58
2022-08-05T10:00:57.576Z,39.62
2022-08-05T10:03:26.307Z,39.56
2022-08-05T10:06:15.602Z,39.41
2022-08-05T10:08:53.826Z,39.42
2022-08-05T10:11:23.794Z,39.48
2022-08-05T10:13:58.823Z,39.56
2022-08-05T10:16:37.804Z,39.66
2022-08-05T10:19:13.520Z,39.71
2022-08-05T10:21:41.328Z,39.78
2022-08-05T10:24:12.721Z,39.70
2022-08-05T10:26:51.686Z,39.54
2022-08-05T10:29:23.858Z,39.33
2022-08-05T10:32:54.431Z,38.96
2022-08-05T10:35:01.022Z,38.66
2022-08-05T10:37:41.323Z,38.67
2022-08-05T10:40:30.118Z,38.72
2022-08-05T10:43:11.195Z,38.83
2022-08-05T10:45:42.353Z,38.84
2022-08-05T10:48:56.518Z,38.86
2022-08-05T10:51:53.118Z,38.69
2022-08-05T10:55:01.693Z,38.36
2022-08-05T10:57:29.492Z,37.86
2022-08-05T11:00:17.963Z,37.71
2022-08-05T11:03:25.144Z,37.55
2022-08-05T11:06:15.032Z,37.29
2022-08-05T11:09:13.230Z,37.13
2022-08-05T11:11:52.560Z,36.99
2022-08-05T11:14:49.487Z,36.95
2022-08-05T11:17:57.232Z,36.84
2022-08-05T11:20:44.623Z,36.74
2022-08-05T11:24:02.847Z,36.70
2022-08-05T11:26:28.384Z,36.53
2022-08-05T11:29:12.699Z,36.38
2022-08-05T11:31:57.608Z,36.26
2022-08-05T11:34:51.125Z,36.24
2022-08-05T11:38:29.410Z,36.18
2022-08-05T11:41:13.824Z,36.06
2022-08-05T11:44:06.535Z,35.88
2022-08-05T11:46:58.119Z,35.75
2022-08-05T11:49:26.644Z,35.71
2022-08-05T11:51:57.546Z,35.65
2022-08-05T11:54:33.954Z,35.60
2022-08-05T11:57:25.321Z,35.52
2022-08-05T11:59:54.853Z,35.45
2022-08-05T12:02:36.126Z,35.38
2022-08-05T12:05:18.058Z,35.40
2022-08-05T12:08:03.520Z,35.30
2022-08-05T12:10:39.067Z,35.19
2022-08-05T12:13:48.719Z,35.22
2022-08-05T12:16:19.419Z,35.29
2022-08-05T12:18:49.554Z,35.24
2022-08-05T12:21:30.027Z,35.27
2022-08-05T12:24:14.256Z,35.29
2022-08-05T12:26:51.139Z,35.34
2022-08-05T12:29:23.791Z,35.40
2022-08-05T12:32:01.741Z,35.42
2022-08-05T12:34:39.690Z,35.41
2022-08-05T12:37:17.105Z,35.42
2022-08-05T12:39:51.637Z,35.39
2022-08-05T12:42:20.890Z,35.36
2022-08-05T12:44:50.354Z,35.32
2022-08-05T12:47:30.746Z,35.26
2022-08-05T12:50:04.404Z,35.27
2022-08-05T12:52:39.598Z,35.29
2022-08-05T12:55:25.212Z,35.35
2022-08-05T12:58:48.552Z,35.46
2022-08-05T13:02:02.520Z,35.71
2022-08-05T13:03:32.250Z,35.82
2022-08-05T13:06:01.630Z,35.78
2022-08-05T13:08:30.094Z,35.69
2022-08-05T13:11:04.107Z,35.68
2022-08-05T13:14:05.634Z,35.62
2022-08-05T13:16:20.762Z,35.59
2022-08-05T13:18:58.402Z,35.53
2022-08-05T13:21:27.766Z,35.53
2022-08-05T13:23:56.183Z,35.52
2022-08-05T13:26:29.841Z,35.54
2022-08-05T13:28:58.971Z,35.53
2022-08-05T13:31:34.063Z,35.54
2022-08-05T13:34:22.451Z,35.49
2022-08-05T13:36:53.681Z,35.46
2022-08-05T13:40:15.840Z,35.44
2022-08-05T13:42:14.023Z,35.42
2022-08-05T13:44:46.360Z,35.39
2022-08-05T13:47:35.996Z,35.31
2022-08-05T13:50:08.128Z,35.28
2022-08-05T13:52:39.331Z,35.26
2022-08-05T13:55:12.613Z,35.23
2022-08-05T13:58:05.944Z,35.22
2022-08-05T14:00:36.432Z,35.22
2022-08-05T14:03:04.096Z,35.19
2022-08-05T14:06:04.908Z,35.21
2022-08-05T14:08:34.759Z,35.22
2022-08-05T14:11:24.643Z,35.25
2022-08-05T14:13:59.613Z,35.25
2022-08-05T14:16:29.698Z,35.20
2022-08-05T14:19:04.618Z,35.18
2022-08-05T14:22:08.117Z,35.21
2022-08-05T14:24:23.220Z,35.25
2022-08-05T14:27:17.169Z,35.27
2022-08-05T14:29:51.430Z,35.30
2022-08-05T14:32:27.243Z,35.33
2022-08-05T14:34:56.823Z,35.36
2022-08-05T14:37:45.468Z,35.39
2022-08-05T14:40:14.281Z,35.37
2022-08-05T14:42:47.740Z,35.32
2022-08-05T14:45:17.050Z,35.27
2022-08-05T14:48:02.723Z,35.23
2022-08-05T14:50:32.202Z,35.22
2022-08-05T14:52:59.942Z,35.20
2022-08-05T14:55:38.776Z,35.19
2022-08-05T14:58:18.578Z,35.18
2022-08-05T15:00:58.300Z,35.09
2022-08-05T15:03:33.756Z,34.99
2022-08-05T15:06:06.819Z,34.90
2022-08-05T15:08:58.188Z,34.81
2022-08-05T15:11:51.556Z,34.81
2022-08-05T15:14:33.605Z,34.81
2022-08-05T15:17:47.172Z,34.78
2022-08-05T15:20:18.399Z,34.76
2022-08-05T15:23:00.453Z,34.74
2022-08-05T15:25:52.112Z,34.74
2022-08-05T15:28:27.767Z,34.74
2022-08-05T15:30:56.274Z,34.69
2022-08-05T15:34:19.353Z,34.65
2022-08-05T15:36:17.368Z,34.61
2022-08-05T15:40:57.418Z,34.60
2022-08-05T15:41:56.091Z,34.63
2022-08-05T15:44:30.228Z,34.63
2022-08-05T15:47:24.419Z,34.62
2022-08-05T15:50:17.353Z,34.64
2022-08-05T15:52:54.542Z,34.64
2022-08-05T15:55:24.491Z,34.64
2022-08-05T15:57:52.945Z,34.65
2022-08-05T16:00:26.031Z,34.64
2022-08-05T16:02:59.114Z,34.59
2022-08-05T16:05:28.383Z,34.58
2022-08-05T16:07:57.177Z,34.57
2022-08-05T16:10:27.001Z,34.57
2022-08-05T16:12:55.906Z,34.55
2022-08-05T16:15:24.018Z,34.50
2022-08-05T16:18:00.606Z,34.45
2022-08-05T16:20:32.436Z,34.40
2022-08-05T16:22:59.745Z,34.34
2022-08-05T16:25:34.216Z,34.29
2022-08-05T16:28:05.891Z,34.23
2022-08-05T16:30:34.445Z,34.19
2022-08-05T16:33:04.517Z,34.13
2022-08-05T16:35:33.593Z,34.10
2022-08-05T16:38:18.576Z,34.10
2022-08-05T16:40:55.642Z,34.09
2022-08-05T16:44:01.912Z,34.07
2022-08-05T16:46:55.702Z,34.05
2022-08-05T16:49:55.388Z,34.03
2022-08-05T16:52:38.422Z,34.03
2022-08-05T16:55:29.848Z,34.03
2022-08-05T16:58:21.964Z,34.01
2022-08-05T17:01:16.582Z,33.99
2022-08-05T17:04:27.437Z,33.92
2022-08-05T17:07:53.011Z,33.84
2022-08-05T17:10:57.553Z,33.74
2022-08-05T17:14:06.569Z,33.65
2022-08-05T17:17:02.874Z,33.57
2022-08-05T17:20:17.247Z,33.47
2022-08-05T17:24:03.817Z,33.33
2022-08-05T17:26:27.929Z,33.25
2022-08-05T17:29:16.068Z,33.22
2022-08-05T17:32:06.700Z,33.21
2022-08-05T17:35:01.200Z,33.16
2022-08-05T17:40:45.483Z,33.09
2022-08-05T17:43:15.162Z,33.01
2022-08-05T17:45:42.454Z,32.91
2022-08-05T17:48:10.941Z,32.81
2022-08-05T17:50:38.871Z,32.69
2022-08-05T17:53:08.527Z,32.60
2022-08-05T17:55:39.582Z,32.51
2022-08-05T17:58:11.209Z,32.41
2022-08-05T18:00:45.490Z,32.32
2022-08-05T18:03:33.463Z,32.20
2022-08-05T18:06:06.076Z,32.09
2022-08-05T18:08:45.072Z,31.98
2022-08-05T18:11:23.913Z,31.89
2022-08-05T18:13:55.365Z,31.81
2022-08-05T18:16:26.251Z,31.74
2022-08-05T18:18:54.046Z,31.67
2022-08-05T18:21:28.170Z,31.63
2022-08-05T18:24:15.243Z,31.58
2022-08-05T18:26:46.637Z,31.52
2022-08-05T18:29:16.873Z,31.45
2022-08-05T18:31:45.277Z,31.36
2022-08-05T18:34:15.522Z,31.29
2022-08-05T18:36:43.538Z,31.25
2022-08-05T18:39:41.736Z,31.17
2022-08-05T18:42:05.016Z,31.11
2022-08-05T18:44:49.330Z,31.04
2022-08-05T18:47:26.823Z,30.99
2022-08-05T18:50:15.532Z,30.95
2022-08-05T18:52:51.286Z,30.87
2022-08-05T18:55:21.640Z,30.81
2022-08-05T18:57:54.052Z,30.77
2022-08-05T19:00:29.149Z,30.75
2022-08-05T19:03:03.709Z,30.74
2022-08-05T19:06:11.320Z,30.71
2022-08-05T19:08:30.767Z,30.67
2022-08-05T19:11:15.678Z,30.64
2022-08-05T19:13:50.088Z,30.61
2022-08-05T19:16:31.982Z,30.58
2022-08-05T19:19:03.264Z,30.51
2022-08-05T19:21:34.460Z,30.42
2022-08-05T19:24:05.722Z,30.30
2022-08-05T19:26:54.986Z,30.18
2022-08-05T19:29:36.377Z,30.12
2022-08-05T19:32:08.659Z,30.08
2022-08-05T19:34:40.408Z,30.01
2022-08-05T19:37:09.763Z,29.97
2022-08-05T19:39:45.553Z,29.85
2022-08-05T19:42:35.581Z,29.70
2022-08-05T19:45:06.036Z,29.62
2022-08-05T19:47:37.584Z,29.55
2022-08-05T19:50:07.933Z,29.47
2022-08-05T19:52:40.133Z,29.39
2022-08-05T19:56:11.812Z,29.29
2022-08-05T19:58:14.566Z,29.21
2022-08-05T20:00:43.348Z,29.15
2022-08-05T20:03:11.367Z,29.11
2022-08-05T20:05:49.792Z,29.10
2022-08-05T20:08:20.424Z,29.13
2022-08-05T20:10:52.720Z,29.12
2022-08-05T20:13:54.420Z,29.11
2022-08-05T20:16:07.939Z,29.07
2022-08-05T20:18:36.606Z,29.03
2022-08-05T20:21:06.683Z,28.95
2022-08-05T20:23:40.432Z,28.93
2022-08-05T20:26:21.295Z,28.92
2022-08-05T20:28:54.044Z,28.92
2022-08-05T20:31:28.776Z,28.84
2022-08-05T20:34:12.440Z,28.73
2022-08-05T20:36:43.490Z,28.67
2022-08-05T20:39:13.544Z,28.62
2022-08-05T20:41:45.306Z,28.58
2022-08-05T20:44:18.579Z,28.33
2022-08-05T20:46:59.895Z,28.14
2022-08-05T20:49:27.589Z,28.02
2022-08-05T20:51:55.825Z,27.84
2022-08-05T20:54:59.028Z,27.62
2022-08-05T20:57:24.526Z,27.51
2022-08-05T21:00:19.519Z,27.41
2022-08-05T21:02:59.750Z,27.32
2022-08-05T21:05:47.791Z,27.25
2022-08-05T21:08:17.158Z,27.15
2022-08-05T21:10:48.682Z,27.08
2022-08-05T21:13:26.547Z,27.04
2022-08-05T21:16:04.774Z,26.88
2022-08-05T21:18:32.302Z,26.81
2022-08-05T21:20:59.428Z,26.78
2022-08-05T21:23:27.405Z,26.75
2022-08-05T21:26:06.355Z,26.63
2022-08-05T21:28:41.166Z,26.53
2022-08-05T21:31:18.983Z,26.43
2022-08-05T21:33:47.702Z,26.32
2022-08-05T21:36:19.090Z,26.31
2022-08-05T21:38:55.675Z,26.32
2022-08-05T21:41:23.236Z,26.34
2022-08-05T21:43:50.994Z,26.39
2022-08-05T21:46:29.930Z,26.46
2022-08-05T21:48:57.111Z,26.49
2022-08-05T21:52:16.094Z,26.46
2022-08-05T21:54:14.689Z,26.44
2022-08-05T21:56:44.666Z,26.42
2022-08-05T21:59:23.922Z,26.43
2022-08-05T22:01:54.607Z,26.43
2022-08-05T22:04:25.320Z,26.44
2022-08-05T22:06:52.954Z,26.45
2022-08-05T22:09:21.477Z,26.42
2022-08-05T22:11:50.025Z,26.42
2022-08-05T22:14:35.437Z,26.48
2022-08-05T22:17:07.041Z,26.55
2022-08-05T22:20:00.358Z,26.59
2022-08-05T22:22:26.868Z,26.57
2022-08-05T22:25:21.152Z,26.55
2022-08-05T22:28:05.073Z,26.53
2022-08-05T22:30:55.306Z,26.49
2022-08-05T22:33:57.973Z,26.44
2022-08-05T22:36:14.514Z,26.42
2022-08-05T22:38:48.105Z,26.44
2022-08-05T22:42:05.419Z,26.45
2022-08-05T22:44:08.220Z,26.35
2022-08-05T22:46:39.799Z,26.27
2022-08-05T22:49:12.456Z,26.24
2022-08-05T22:52:05.842Z,26.16
2022-08-05T22:54:36.730Z,26.05
2022-08-05T22:57:05.792Z,26.04
2022-08-05T22:59:45.542Z,26.06
2022-08-05T23:02:28.744Z,26.05
2022-08-05T23:05:01.827Z,26.09
2022-08-05T23:07:35.724Z,26.10
2022-08-05T23:10:13.718Z,26.13
2022-08-05T23:12:43.765Z,26.12
2022-08-05T23:15:11.890Z,26.08
2022-08-05T23:18:01.055Z,26.07
2022-08-05T23:20:27.204Z,26.12
2022-08-05T23:22:56.315Z,26.12
2022-08-05T23:25:52.394Z,26.00
2022-08-05T23:28:12.657Z,25.85
2022-08-05T23:30:43.556Z,25.67
2022-08-05T23:33:22.367Z,25.54
2022-08-05T23:35:55.932Z,25.55
2022-08-05T23:38:25.736Z,25.59
2022-08-05T23:40:53.104Z,25.51
2022-08-05T23:43:25.229Z,25.48
2022-08-05T23:46:20.201Z,25.41
2022-08-05T23:48:59.273Z,25.24
2022-08-05T23:51:27.482Z,25.23
2022-08-05T23:54:01.141Z,25.20
2022-08-05T23:56:29.136Z,25.18
2022-08-05T23:58:58.704Z,25.18
